JST518 YMLT-YMAV
Flight info
| Callsign | JST518 |
|---|---|
| Flight time | N/A |
| Altitude | 32000 |
| Route | IRSOM DCT DIPLO DCT TAITE DCT AV2SB |
| Aircraft | A321/M-SDE3FGHIRWY/LB1 |
Departure
| Time | N/A |
|---|---|
| Airport | Launceston Airport (YMLT) |
Arrival
| Time | 2026-04-14 22:43 |
|---|---|
| Airport | Melbourne Avalon International Airport (YMAV) |
| Time | Latitude | Longitude | Altitude | Speed | Heading |
|---|---|---|---|---|---|
| 2026-04-14 22:10 | -40.93313 | 146.27977 | 25793 ft | 412 kts | 325° |
| 2026-04-14 22:10 | -40.90731 | 146.26299 | 26142 ft | 415 kts | 325° |
| 2026-04-14 22:10 | -40.88168 | 146.24637 | 26482 ft | 417 kts | 325° |
| 2026-04-14 22:11 | -40.85559 | 146.22947 | 26834 ft | 419 kts | 325° |
| 2026-04-14 22:11 | -40.82943 | 146.21254 | 27183 ft | 421 kts | 325° |
| 2026-04-14 22:11 | -40.80308 | 146.19551 | 27527 ft | 423 kts | 325° |
| 2026-04-14 22:11 | -40.77660 | 146.17841 | 27870 ft | 425 kts | 325° |
| 2026-04-14 22:12 | -40.75001 | 146.16122 | 28204 ft | 427 kts | 325° |
| 2026-04-14 22:12 | -40.72330 | 146.14392 | 28513 ft | 429 kts | 325° |
| 2026-04-14 22:12 | -40.69643 | 146.12658 | 28830 ft | 431 kts | 325° |
| 2026-04-14 22:12 | -40.66942 | 146.10923 | 29142 ft | 433 kts | 325° |
| 2026-04-14 22:13 | -40.64225 | 146.09181 | 29423 ft | 435 kts | 326° |
| 2026-04-14 22:13 | -40.61498 | 146.07433 | 29751 ft | 437 kts | 326° |
| 2026-04-14 22:13 | -40.58768 | 146.05680 | 30059 ft | 439 kts | 326° |
| 2026-04-14 22:13 | -40.56013 | 146.03913 | 30337 ft | 441 kts | 326° |
| 2026-04-14 22:14 | -40.53259 | 146.02145 | 30584 ft | 442 kts | 326° |
| 2026-04-14 22:14 | -40.50486 | 146.00370 | 30848 ft | 444 kts | 326° |
| 2026-04-14 22:14 | -40.47706 | 145.98593 | 31162 ft | 444 kts | 326° |
| 2026-04-14 22:14 | -40.44932 | 145.96822 | 31546 ft | 442 kts | 326° |
| 2026-04-14 22:15 | -40.42167 | 145.95060 | 31926 ft | 441 kts | 326° |
| 2026-04-14 22:15 | -40.39406 | 145.93299 | 32093 ft | 441 kts | 326° |
| 2026-04-14 22:15 | -40.36676 | 145.91566 | 32137 ft | 430 kts | 326° |
| 2026-04-14 22:15 | -40.34006 | 145.89876 | 32138 ft | 423 kts | 325° |
| 2026-04-14 22:16 | -40.28730 | 145.86517 | 32141 ft | 421 kts | 325° |
| 2026-04-14 22:16 | -40.23470 | 145.83169 | 32141 ft | 420 kts | 325° |
| 2026-04-14 22:17 | -40.18205 | 145.79827 | 32141 ft | 421 kts | 325° |
| 2026-04-14 22:17 | -40.12936 | 145.76496 | 32117 ft | 421 kts | 326° |
| 2026-04-14 22:18 | -40.07666 | 145.73166 | 32123 ft | 421 kts | 326° |
| 2026-04-14 22:18 | -40.02424 | 145.69862 | 32134 ft | 421 kts | 326° |
| 2026-04-14 22:19 | -39.94931 | 145.64090 | 32124 ft | 414 kts | 319° |
| 2026-04-14 22:20 | -39.90094 | 145.60019 | 32128 ft | 414 kts | 319° |
| 2026-04-14 22:20 | -39.85251 | 145.55954 | 32135 ft | 414 kts | 319° |
| 2026-04-14 22:21 | -39.80438 | 145.51923 | 32146 ft | 414 kts | 319° |
| 2026-04-14 22:21 | -39.75588 | 145.47875 | 32131 ft | 414 kts | 320° |
| 2026-04-14 22:22 | -39.70731 | 145.43834 | 32150 ft | 414 kts | 320° |
| 2026-04-14 22:22 | -39.65862 | 145.39773 | 32165 ft | 422 kts | 320° |
| 2026-04-14 22:23 | -39.60846 | 145.35587 | 32152 ft | 433 kts | 320° |
| 2026-04-14 22:23 | -39.55800 | 145.31409 | 31803 ft | 425 kts | 320° |
| 2026-04-14 22:23 | -39.53294 | 145.29339 | 30873 ft | 431 kts | 320° |
| 2026-04-14 22:24 | -39.50754 | 145.27237 | 30099 ft | 434 kts | 320° |
| 2026-04-14 22:24 | -39.48194 | 145.25116 | 29014 ft | 440 kts | 320° |
| 2026-04-14 22:24 | -39.45612 | 145.22977 | 28247 ft | 440 kts | 321° |
| 2026-04-14 22:24 | -39.43038 | 145.20856 | 27581 ft | 437 kts | 321° |
| 2026-04-14 22:25 | -39.40481 | 145.18755 | 26927 ft | 434 kts | 321° |
| 2026-04-14 22:25 | -39.37941 | 145.16667 | 26490 ft | 432 kts | 321° |
| 2026-04-14 22:25 | -39.35411 | 145.14586 | 26040 ft | 430 kts | 321° |
| 2026-04-14 22:25 | -39.32894 | 145.12516 | 25599 ft | 428 kts | 321° |
| 2026-04-14 22:26 | -39.30398 | 145.10465 | 25165 ft | 425 kts | 321° |
| 2026-04-14 22:26 | -39.27912 | 145.08423 | 24684 ft | 422 kts | 321° |
| 2026-04-14 22:26 | -39.25443 | 145.06398 | 24230 ft | 419 kts | 321° |
| 2026-04-14 22:26 | -39.22989 | 145.04389 | 23761 ft | 416 kts | 321° |
| 2026-04-14 22:27 | -39.21370 | 145.03067 | 23400 ft | 415 kts | 321° |
| 2026-04-14 22:27 | -39.18940 | 145.01085 | 22929 ft | 412 kts | 321° |
| 2026-04-14 22:27 | -39.16525 | 144.99116 | 22452 ft | 410 kts | 321° |
| 2026-04-14 22:27 | -39.13320 | 144.96499 | 21811 ft | 406 kts | 321° |
| 2026-04-14 22:28 | -39.11741 | 144.95210 | 21495 ft | 404 kts | 321° |
| 2026-04-14 22:28 | -39.09376 | 144.93272 | 21023 ft | 402 kts | 321° |
| 2026-04-14 22:28 | -39.07031 | 144.91349 | 20549 ft | 399 kts | 321° |
| 2026-04-14 22:28 | -39.04693 | 144.89442 | 20084 ft | 397 kts | 321° |
| 2026-04-14 22:29 | -39.02367 | 144.87552 | 19619 ft | 394 kts | 321° |
| 2026-04-14 22:29 | -39.00054 | 144.85678 | 19146 ft | 392 kts | 321° |
| 2026-04-14 22:29 | -38.97757 | 144.83812 | 18684 ft | 389 kts | 321° |
| 2026-04-14 22:29 | -38.95474 | 144.81957 | 18187 ft | 387 kts | 321° |
| 2026-04-14 22:30 | -38.93206 | 144.80116 | 17719 ft | 385 kts | 321° |
| 2026-04-14 22:30 | -38.90951 | 144.78287 | 17260 ft | 382 kts | 321° |
| 2026-04-14 22:30 | -38.88714 | 144.76473 | 16811 ft | 380 kts | 321° |
| 2026-04-14 22:30 | -38.86487 | 144.74670 | 16343 ft | 378 kts | 321° |
| 2026-04-14 22:31 | -38.84270 | 144.72876 | 15897 ft | 376 kts | 322° |
| 2026-04-14 22:31 | -38.82065 | 144.71094 | 15451 ft | 373 kts | 322° |
| 2026-04-14 22:31 | -38.79872 | 144.69325 | 15007 ft | 371 kts | 322° |
| 2026-04-14 22:31 | -38.77694 | 144.67567 | 14591 ft | 367 kts | 322° |
| 2026-04-14 22:32 | -38.75581 | 144.65868 | 14455 ft | 348 kts | 322° |
| 2026-04-14 22:32 | -38.73584 | 144.64273 | 13951 ft | 331 kts | 321° |
| 2026-04-14 22:32 | -38.71679 | 144.62743 | 13185 ft | 324 kts | 321° |
| 2026-04-14 22:32 | -38.69820 | 144.61250 | 12922 ft | 308 kts | 321° |
| 2026-04-14 22:33 | -38.68041 | 144.59825 | 12579 ft | 296 kts | 321° |
| 2026-04-14 22:33 | -38.66309 | 144.58434 | 12227 ft | 285 kts | 321° |
| 2026-04-14 22:33 | -38.64687 | 144.57128 | 11896 ft | 275 kts | 320° |
| 2026-04-14 22:33 | -38.63087 | 144.55838 | 11567 ft | 271 kts | 320° |
| 2026-04-14 22:34 | -38.61498 | 144.54554 | 11252 ft | 269 kts | 320° |
| 2026-04-14 22:34 | -38.59914 | 144.53276 | 10924 ft | 269 kts | 320° |
| 2026-04-14 22:34 | -38.58333 | 144.52006 | 10596 ft | 268 kts | 321° |
| 2026-04-14 22:34 | -38.56747 | 144.50731 | 10161 ft | 271 kts | 321° |
| 2026-04-14 22:35 | -38.55146 | 144.49443 | 9743 ft | 272 kts | 321° |
| 2026-04-14 22:35 | -38.53538 | 144.48176 | 9383 ft | 273 kts | 325° |
| 2026-04-14 22:35 | -38.51742 | 144.47318 | 9019 ft | 280 kts | 342° |
| 2026-04-14 22:35 | -38.49790 | 144.47027 | 8651 ft | 284 kts | 348° |
| 2026-04-14 22:36 | -38.47825 | 144.46805 | 8275 ft | 283 kts | 348° |
| 2026-04-14 22:36 | -38.45865 | 144.46580 | 7908 ft | 283 kts | 349° |
| 2026-04-14 22:36 | -38.43907 | 144.46349 | 7536 ft | 282 kts | 349° |
| 2026-04-14 22:36 | -38.41958 | 144.46114 | 7165 ft | 281 kts | 349° |
| 2026-04-14 22:37 | -38.40012 | 144.45878 | 6799 ft | 281 kts | 349° |
| 2026-04-14 22:37 | -38.38078 | 144.45646 | 6474 ft | 278 kts | 349° |
| 2026-04-14 22:37 | -38.36149 | 144.45416 | 6034 ft | 278 kts | 350° |
| 2026-04-14 22:37 | -38.34225 | 144.45186 | 5682 ft | 277 kts | 350° |
| 2026-04-14 22:38 | -38.32313 | 144.44958 | 5307 ft | 277 kts | 350° |
| 2026-04-14 22:38 | -38.30394 | 144.44729 | 4932 ft | 277 kts | 350° |
| 2026-04-14 22:38 | -38.28518 | 144.44509 | 4550 ft | 264 kts | 350° |
| 2026-04-14 22:38 | -38.26741 | 144.44306 | 4208 ft | 248 kts | 350° |
| 2026-04-14 22:39 | -38.25064 | 144.44115 | 3886 ft | 238 kts | 350° |
| 2026-04-14 22:39 | -38.23420 | 144.43924 | 3587 ft | 237 kts | 350° |
| 2026-04-14 22:39 | -38.21759 | 144.43895 | 3296 ft | 241 kts | 4° |
| 2026-04-14 22:39 | -38.20145 | 144.44479 | 2949 ft | 241 kts | 17° |
| 2026-04-14 22:40 | -38.18585 | 144.45208 | 2619 ft | 237 kts | 17° |
| 2026-04-14 22:40 | -38.17048 | 144.45921 | 2320 ft | 232 kts | 15° |
| 2026-04-14 22:40 | -38.15530 | 144.46491 | 2020 ft | 221 kts | 3° |
| 2026-04-14 22:40 | -38.14098 | 144.46511 | 1988 ft | 189 kts | 350° |
| 2026-04-14 22:41 | -38.12864 | 144.46401 | 1895 ft | 170 kts | 346° |
| 2026-04-14 22:41 | -38.11761 | 144.46199 | 1669 ft | 155 kts | 344° |
| 2026-04-14 22:41 | -38.10716 | 144.46037 | 1298 ft | 148 kts | 346° |
| 2026-04-14 22:41 | -38.09705 | 144.45900 | 977 ft | 144 kts | 351° |
| 2026-04-14 22:42 | -38.08702 | 144.45953 | 696 ft | 143 kts | 1° |
| 2026-04-14 22:42 | -38.07719 | 144.46118 | 475 ft | 143 kts | 3° |
| 2026-04-14 22:42 | -38.06759 | 144.46285 | 333 ft | 137 kts | 1° |
| 2026-04-14 22:42 | -38.05810 | 144.46435 | 158 ft | 137 kts | 1° |
| 2026-04-14 22:43 | -38.04874 | 144.46588 | 38 ft | 128 kts | 356° |
| 2026-04-14 22:43 | -38.04191 | 144.46691 | 32 ft | 71 kts | 9° |
| 2026-04-14 22:43 | -38.03817 | 144.46754 | 34 ft | 44 kts | 8° |
| 2026-04-14 22:43 | -38.03528 | 144.46803 | 35 ft | 38 kts | 7° |
| 2026-04-14 22:44 | -38.03288 | 144.46847 | 34 ft | 34 kts | 8° |
| 2026-04-14 22:44 | -38.03070 | 144.46882 | 33 ft | 21 kts | 7° |
| 2026-04-14 22:44 | -38.02923 | 144.46908 | 30 ft | 23 kts | 7° |
| 2026-04-14 22:44 | -38.02801 | 144.46927 | 29 ft | 12 kts | 7° |
| 2026-04-14 22:45 | -38.02737 | 144.46972 | 30 ft | 11 kts | 64° |
| 2026-04-14 22:45 | -38.02735 | 144.47058 | 31 ft | 9 kts | 96° |
| 2026-04-14 22:45 | -38.02755 | 144.47128 | 31 ft | 9 kts | 118° |
| 2026-04-14 22:45 | -38.02783 | 144.47203 | 32 ft | 10 kts | 107° |
| 2026-04-14 22:46 | -38.02794 | 144.47291 | 32 ft | 7 kts | 97° |
| 2026-04-14 22:46 | -38.02798 | 144.47339 | 32 ft | 5 kts | 96° |
| 2026-04-14 22:46 | -38.02784 | 144.47357 | 32 ft | 3 kts | 17° |
| 2026-04-14 22:46 | -38.02760 | 144.47364 | 31 ft | 2 kts | 9° |
| 2026-04-14 22:47 | -38.02744 | 144.47367 | 32 ft | 3 kts | 8° |
| 2026-04-14 22:47 | -38.02739 | 144.47367 | 32 ft | 0 kts | 8° |